Accueil
METAR-TAF:

METAR-TAF

Aéroports :

Aéroport de Lyon-Bron

Lyon, France

latitude: 45-43N, longitude: 004-57E, altitude: 200 m

Observation

Le bulletin a été fait il y a 30 minutes, à 04:00 UTC
Vent 4 kt de nord, variant entre nord-ouest et nord/nord-est
Température 5°C
Humidité 60%
Pression 1015 hPa
Visibilité 10 km ou plus
pas de nuages en-dessous de 1500 mètres et pas de cumulonimbus.

METAR: LFLY 030400Z AUTO 35004KT 320V020 CAVOK 05/M02 Q1015

Heure: 06:30 (04:30 UTC)


TAF: absent

Observations et prévisions météorologiques de plus de 4000 aéroports (messages METAR et TAF).

Les stations disponibles sont représentées par des disques jaunes et rouges sur la carte.

Passer la souris dessus pour voir le nom de la station.

Cliquer dessus pour voir les observations et prévisions météorologiques.

Pour changer de carte: cliquez sur les boutons verts avec une croix noire pour zoomer, sur le bouton vert avec un tiret pour effectuer un zoom arrière, ou sur les flèches vertes pour les cartes adjacentes.


METAR-TAF: